メインページ
METAR-TAF:

METAR-TAF

空港 :

アムステルダム・スキポール空港

アムステルダム, オランダ

緯度: 52-18N, 経度: 004-46E, 海抜: -4m

現時点の気象観測

当レポートは24分前の10:25(UTC)に作成
の風 12kt、北東から南東の間で変化する
気温 22°C
湿度 50%
気圧 1016 hPa
視程10km以上
1,500メートル以下は雲なし、積乱雲なし

METAR: EHAM 211025Z 08012KT 050V130 CAVOK 22/11 Q1016 NOSIG

時間: 12:49 (10:49 UTC)

予報

当レポートは6時間6分前の04:43(UTC)に作成
予報は21日の 06時(UTC)から 22日の 12時(UTC)まで有効
の風 7kt
視程10km以上
1,500メートル以下は雲なし、積乱雲なし
21日の 09時(UTC)から 21日の 12時(UTC)まで徐々に
の風 13kt
21日の 18時(UTC)から 21日の 21時(UTC)まで徐々に
東/北東の風 5kt

TAF: EHAM 210443Z 2106/2212 08007KT CAVOK BECMG 2109/2112 09013KT BECMG 2118/2121 06005KT

4,000以上の空港の気象観測と天気予報(METAR報とTAF報)

利用可能な観測所は地図上に黄色い丸と赤い丸で示す。

丸の上にカーソルを重ねると観測所名を参照できる。

次にクリックすると気象観測と天気予報を参照できる。

マップの切り替え:黒色「×」印の緑ボタンをクリックして拡大、「-」印の緑ボタンをクリックして縮小、緑色の三角印をクリックして隣りの地図に切り替え


METAR-TAF: